createdAt,value
2022-12-01T05:09:45.583Z,101698.06
2022-12-01T05:12:17.417Z,101678.88
2022-12-01T05:14:45.576Z,101647.91
2022-12-01T05:17:13.830Z,101676.34
2022-12-01T05:19:59.545Z,101676.06
2022-12-01T05:22:57.272Z,101688.69
2022-12-01T06:34:40.763Z,101710.25
2022-12-01T06:37:10.002Z,101692.59
2022-12-01T06:39:38.385Z,101720.22
2022-12-01T06:42:06.568Z,101686.16
2022-12-01T06:44:34.836Z,101707.63
2022-12-01T06:47:02.765Z,101680.63
2022-12-01T06:49:30.881Z,101705.00
2022-12-01T06:52:00.976Z,101724.78
2022-12-01T06:54:31.012Z,101653.88
2022-12-01T06:56:59.199Z,101716.63
2022-12-01T06:59:27.287Z,101731.41
2022-12-01T07:01:56.910Z,101712.22
2022-12-01T07:04:24.804Z,101725.75
2022-12-01T07:06:53.157Z,101714.69
2022-12-01T07:09:21.204Z,101724.66
2022-12-01T07:11:50.377Z,101714.13
2022-12-01T07:14:23.671Z,101731.31
2022-12-01T07:16:51.840Z,101667.81
2022-12-01T07:19:20.385Z,101743.38
2022-12-01T07:21:48.230Z,101741.94
2022-12-01T07:24:16.013Z,101742.75
2022-12-01T07:26:44.944Z,101730.84
2022-12-01T07:29:14.148Z,101701.16
2022-12-01T07:31:42.439Z,101734.88
2022-12-01T07:34:12.783Z,101739.84
2022-12-01T07:36:40.741Z,101740.16
2022-12-01T07:39:09.744Z,101746.25
2022-12-01T07:41:37.682Z,101728.28
2022-12-01T07:44:06.028Z,101691.91
2022-12-01T07:46:35.239Z,101745.41
2022-12-01T07:49:06.615Z,101743.47
2022-12-01T07:51:35.039Z,101738.97
2022-12-01T07:54:04.647Z,101747.03
2022-12-01T07:56:32.689Z,101760.38
2022-12-01T07:59:01.288Z,101767.13
2022-12-01T08:01:29.034Z,101762.47
2022-12-01T08:04:00.862Z,101767.47
2022-12-01T08:06:28.814Z,101775.34
2022-12-01T08:08:56.954Z,101773.75
2022-12-01T08:11:27.160Z,101765.09
2022-12-01T08:13:55.112Z,101774.03
2022-12-01T08:16:24.825Z,101766.59
2022-12-01T08:18:52.581Z,101742.75
2022-12-01T08:21:24.263Z,101789.25
2022-12-01T08:23:54.950Z,101774.03
2022-12-01T08:26:24.687Z,101760.50
2022-12-01T08:28:52.541Z,101776.00
2022-12-01T08:31:22.504Z,101757.13
2022-12-01T08:33:51.817Z,101791.69
2022-12-01T08:36:21.554Z,101783.63
2022-12-01T08:38:51.804Z,101788.72
2022-12-01T08:41:20.290Z,101769.72
2022-12-01T08:44:03.468Z,101770.91
2022-12-01T08:46:35.041Z,101780.81
2022-12-01T08:49:03.643Z,101790.81
2022-12-01T08:51:33.958Z,101786.53
2022-12-01T08:54:02.161Z,101750.97
2022-12-01T08:56:33.075Z,101788.41
2022-12-01T08:59:01.238Z,101790.06
2022-12-01T09:01:29.641Z,101780.13
2022-12-01T09:04:09.065Z,101798.66
2022-12-01T09:06:43.156Z,101780.91
2022-12-01T09:09:14.849Z,101799.41
2022-12-01T09:11:43.818Z,101782.94
2022-12-01T09:14:12.750Z,101796.78
2022-12-01T09:16:40.854Z,101797.06
2022-12-01T09:19:09.444Z,101791.28
2022-12-01T09:21:38.117Z,101797.25
2022-12-01T09:24:09.623Z,101789.63
2022-12-01T09:26:37.453Z,101795.06
2022-12-01T09:29:07.070Z,101783.78
2022-12-01T09:31:35.978Z,101803.16
2022-12-01T09:34:06.868Z,101801.81
2022-12-01T09:36:36.400Z,101808.22
2022-12-01T09:39:05.111Z,101791.59
2022-12-01T09:41:36.969Z,101794.38
2022-12-01T09:44:14.187Z,101743.00
2022-12-01T09:46:47.601Z,101774.81
2022-12-01T09:49:22.849Z,101805.22
2022-12-01T09:51:51.705Z,101783.41
2022-12-01T09:54:19.596Z,101794.97
2022-12-01T09:56:59.756Z,101808.59
2022-12-01T09:59:32.825Z,101782.47
2022-12-01T10:02:03.880Z,101805.06
2022-12-01T10:04:38.214Z,101807.38
2022-12-01T10:07:15.387Z,101788.88
2022-12-01T10:09:54.990Z,101794.28
2022-12-01T10:12:28.432Z,101782.38
2022-12-01T10:15:04.559Z,101725.09
2022-12-01T10:17:43.025Z,101793.28
2022-12-01T10:20:17.748Z,101790.00
2022-12-01T10:23:00.075Z,101785.63
2022-12-01T10:25:32.760Z,101784.47
2022-12-01T10:28:15.961Z,101791.94
2022-12-01T10:30:51.022Z,101777.56
2022-12-01T10:33:24.701Z,101796.75
2022-12-01T10:35:52.886Z,101781.09
2022-12-01T10:38:28.488Z,101787.63
2022-12-01T10:40:58.521Z,101767.75
2022-12-01T10:43:34.127Z,101784.09
2022-12-01T10:46:06.802Z,101760.94
2022-12-01T10:48:35.074Z,101747.69
2022-12-01T10:51:17.072Z,101771.38
2022-12-01T10:53:45.159Z,101750.41
2022-12-01T10:56:16.704Z,101773.59
2022-12-01T10:58:48.817Z,101767.38
2022-12-01T11:01:20.506Z,101768.66
2022-12-01T11:03:54.276Z,101770.50
2022-12-01T11:06:25.568Z,101766.41
2022-12-01T11:08:57.395Z,101761.66
2022-12-01T11:11:32.452Z,101748.94
2022-12-01T11:14:04.502Z,101752.56
2022-12-01T11:16:39.765Z,101756.72
2022-12-01T11:19:23.574Z,101750.22
2022-12-01T11:21:56.742Z,101740.09
2022-12-01T11:24:42.663Z,101737.78
2022-12-01T11:27:18.360Z,101751.28
2022-12-01T11:29:51.445Z,101744.38
2022-12-01T11:32:23.308Z,101751.34
2022-12-01T11:34:55.498Z,101725.94
2022-12-01T11:37:25.995Z,101706.75
2022-12-01T11:39:53.973Z,101753.38
2022-12-01T11:42:27.673Z,101718.84
2022-12-01T11:45:01.841Z,101726.91
2022-12-01T11:47:30.451Z,101726.91
2022-12-01T11:50:00.725Z,101715.38
2022-12-01T11:52:31.730Z,101739.41
2022-12-01T11:55:09.869Z,101695.28
2022-12-01T11:57:40.852Z,101738.28
2022-12-01T12:00:16.555Z,101731.13
2022-12-01T12:02:57.685Z,101693.31
2022-12-01T12:05:45.656Z,101737.97
2022-12-01T12:08:26.216Z,101731.66
2022-12-01T12:11:03.369Z,101728.38
2022-12-01T12:13:51.293Z,101724.78
2022-12-01T12:16:33.693Z,101709.09
2022-12-01T12:19:14.152Z,101719.16
2022-12-01T12:21:50.073Z,101723.47
2022-12-01T12:24:35.156Z,101701.00
2022-12-01T12:27:11.532Z,101720.22
2022-12-01T12:29:54.450Z,101699.38
2022-12-01T12:32:38.856Z,101717.00
2022-12-01T12:35:21.261Z,101707.16
2022-12-01T12:38:04.285Z,101707.16
2022-12-01T12:40:43.801Z,101684.50
2022-12-01T12:43:23.651Z,101697.22
2022-12-01T12:46:08.887Z,101692.94
2022-12-01T12:49:18.485Z,101698.06
2022-12-01T12:51:51.119Z,101697.06
2022-12-01T12:54:27.578Z,101692.31
2022-12-01T12:57:02.303Z,101677.56
2022-12-01T12:59:35.385Z,101693.75
2022-12-01T13:02:14.359Z,101695.44
2022-12-01T13:04:53.173Z,101620.47
2022-12-01T13:07:33.709Z,101689.28
2022-12-01T13:10:08.067Z,101682.88
2022-12-01T13:12:40.407Z,101655.47
2022-12-01T13:15:17.866Z,101688.47
2022-12-01T13:17:50.728Z,101662.88
2022-12-01T13:20:24.907Z,101660.75
2022-12-01T13:22:55.041Z,101681.91
2022-12-01T13:25:28.459Z,101659.13
2022-12-01T13:27:58.480Z,101665.25
2022-12-01T13:30:27.890Z,101652.19
2022-12-01T13:33:02.648Z,101667.75
2022-12-01T13:35:34.354Z,101671.69
2022-12-01T13:38:21.911Z,101663.81
2022-12-01T13:40:50.889Z,101640.84
2022-12-01T13:43:22.252Z,101656.19
2022-12-01T13:45:51.828Z,101660.47
2022-12-01T13:48:30.489Z,101661.50
2022-12-01T13:51:03.123Z,101651.59
2022-12-01T13:53:34.718Z,101655.22
2022-12-01T13:56:25.360Z,101656.88
2022-12-01T13:58:55.752Z,101638.38
2022-12-01T14:02:08.880Z,101660.69
2022-12-01T14:04:37.637Z,101642.19
2022-12-01T14:07:41.219Z,101652.09
2022-12-01T14:10:26.797Z,101644.34
2022-12-01T14:12:58.571Z,101654.25
2022-12-01T14:15:34.942Z,101611.16
2022-12-01T14:18:07.552Z,101657.22
2022-12-01T14:20:45.217Z,101617.91
2022-12-01T14:23:18.916Z,101642.03
2022-12-01T14:26:00.960Z,101643.16
2022-12-01T14:29:04.871Z,101648.97
2022-12-01T14:32:21.976Z,101653.75
2022-12-01T14:35:00.083Z,101653.69
2022-12-01T14:37:36.620Z,101638.56
2022-12-01T14:40:12.578Z,101644.31
2022-12-01T14:43:01.918Z,101646.00
2022-12-01T14:45:36.870Z,101647.47
2022-12-01T14:48:07.719Z,101645.00
2022-12-01T14:50:46.814Z,101643.31
2022-12-01T14:53:26.125Z,101628.81
2022-12-01T14:55:58.360Z,101628.28
2022-12-01T14:58:28.403Z,101653.09
2022-12-01T15:01:07.264Z,101650.78
2022-12-01T15:03:39.698Z,101658.34
2022-12-01T15:06:08.904Z,101625.81
2022-12-01T15:08:49.429Z,101656.88
2022-12-01T15:11:30.364Z,101629.81
2022-12-01T15:13:59.398Z,101638.06
2022-12-01T15:16:32.213Z,101624.81
2022-12-01T15:19:00.259Z,101646.94
2022-12-01T15:21:31.231Z,101644.50
2022-12-01T15:24:01.324Z,101648.25
2022-12-01T15:26:33.816Z,101636.72
2022-12-01T15:29:16.189Z,101635.06
2022-12-01T15:31:45.860Z,101646.63
2022-12-01T15:41:35.112Z,101633.09
2022-12-01T15:44:05.717Z,101658.50
2022-12-01T15:46:35.593Z,101631.09
2022-12-01T15:49:11.347Z,101619.34
2022-12-01T15:51:39.591Z,101660.63
2022-12-01T15:54:17.777Z,101643.44
2022-12-01T15:56:47.252Z,101664.59
2022-12-01T15:59:27.462Z,101624.13
2022-12-01T16:01:57.883Z,101636.97
2022-12-01T16:04:32.870Z,101600.63
2022-12-01T16:07:06.100Z,101607.75
2022-12-01T16:09:37.707Z,101626.44
2022-12-01T16:12:24.203Z,101633.81
2022-12-01T16:15:19.045Z,101611.06
2022-12-01T16:17:50.132Z,101651.84
2022-12-01T16:20:24.184Z,101640.78
2022-12-01T16:25:45.815Z,101651.84
2022-12-01T16:28:23.345Z,101666.22
2022-12-01T16:30:54.020Z,101668.66
2022-12-01T16:33:24.531Z,101668.00
2022-12-01T16:35:53.588Z,101649.69
2022-12-01T16:38:23.011Z,101666.53
2022-12-01T16:40:52.958Z,101653.16
2022-12-01T16:43:23.026Z,101665.03
2022-12-01T16:46:00.569Z,101612.16
2022-12-01T16:48:28.956Z,101614.81
2022-12-01T16:50:57.875Z,101648.34
2022-12-01T16:53:26.355Z,101653.94
2022-12-01T16:55:56.134Z,101628.84
2022-12-01T16:58:24.639Z,101638.09
2022-12-01T17:00:54.312Z,101656.69
2022-12-01T17:03:23.865Z,101678.00
2022-12-01T17:05:52.410Z,101684.44
2022-12-01T17:08:20.821Z,101674.84
2022-12-01T17:10:51.024Z,101672.06
2022-12-01T17:13:19.830Z,101688.72
2022-12-01T17:15:50.247Z,101665.41
2022-12-01T17:18:21.798Z,101699.72
2022-12-01T17:20:58.627Z,101692.47
2022-12-01T17:23:28.124Z,101662.94
2022-12-01T17:25:56.847Z,101644.38
2022-12-01T17:28:25.147Z,101675.78
2022-12-01T17:30:53.192Z,101674.94
2022-12-01T17:33:23.132Z,101703.53
2022-12-01T17:35:50.992Z,101701.59
2022-12-01T17:38:19.220Z,101696.97
2022-12-01T17:40:47.050Z,101688.03
2022-12-01T17:43:15.411Z,101688.03
2022-12-01T17:45:44.425Z,101679.28
2022-12-01T17:48:12.691Z,101671.50
2022-12-01T17:50:42.013Z,101670.06
2022-12-01T17:53:10.353Z,101689.38
2022-12-01T17:55:40.222Z,101631.88
2022-12-01T17:58:08.146Z,101672.03
2022-12-01T18:00:36.626Z,101691.78
2022-12-01T18:03:04.668Z,101672.50
2022-12-01T18:05:32.769Z,101671.19
2022-12-01T18:08:02.669Z,101671.72
2022-12-01T18:10:30.634Z,101669.22
2022-12-01T18:12:58.925Z,101671.44
2022-12-01T18:15:31.819Z,101655.97
2022-12-01T18:18:03.071Z,101638.44
2022-12-01T18:20:30.890Z,101620.34
2022-12-01T18:22:59.298Z,101670.81
2022-12-01T18:25:28.638Z,101645.41
2022-12-01T18:27:59.227Z,101670.56
2022-12-01T18:30:27.150Z,101651.63
2022-12-01T18:32:55.094Z,101646.94
2022-12-01T18:35:27.416Z,101658.84
2022-12-01T18:37:58.217Z,101668.34
2022-12-01T18:40:26.468Z,101663.88
2022-12-01T18:42:55.840Z,101657.91
2022-12-01T18:45:24.455Z,101639.63
2022-12-01T18:47:52.423Z,101664.72
2022-12-01T18:50:20.831Z,101640.91
2022-12-01T18:52:48.670Z,101647.38
2022-12-01T18:55:16.627Z,101658.66
2022-12-01T18:57:47.513Z,101633.38
2022-12-01T19:00:17.797Z,101651.88
2022-12-01T19:02:47.306Z,101649.22
2022-12-01T19:05:15.128Z,101635.69
2022-12-01T19:07:43.385Z,101627.84
2022-12-01T19:10:12.048Z,101619.78
2022-12-01T19:12:41.230Z,101659.78
2022-12-01T19:15:10.555Z,101630.22
2022-12-01T19:17:40.640Z,101652.00
2022-12-01T19:20:09.729Z,101641.56
2022-12-01T19:22:38.175Z,101653.78
2022-12-01T19:25:06.682Z,101665.53
2022-12-01T19:27:34.425Z,101640.44
2022-12-01T19:30:02.766Z,101666.50
2022-12-01T19:32:32.176Z,101655.97
2022-12-01T19:35:02.115Z,101672.47
2022-12-01T19:37:30.123Z,101672.78
2022-12-01T19:39:58.256Z,101636.75
2022-12-01T19:42:26.748Z,101649.34
2022-12-01T19:44:54.850Z,101635.75
2022-12-01T19:47:23.107Z,101646.03
2022-12-01T19:49:51.117Z,101625.50
2022-12-01T19:52:20.510Z,101655.13
2022-12-01T19:54:49.163Z,101649.69
2022-12-01T19:57:17.487Z,101667.69
2022-12-01T19:59:45.900Z,101659.59
2022-12-01T20:02:14.081Z,101649.13
2022-12-01T20:04:42.134Z,101659.88
2022-12-01T20:07:10.381Z,101647.00
2022-12-01T20:09:44.346Z,101646.72
2022-12-01T20:12:15.658Z,101642.56
2022-12-01T20:14:43.620Z,101664.22
2022-12-01T20:17:15.726Z,101678.72
2022-12-01T20:19:44.104Z,101641.38
2022-12-01T20:22:12.064Z,101649.88
2022-12-01T20:24:42.508Z,101645.19
2022-12-01T20:27:10.760Z,101636.31
2022-12-01T20:29:38.942Z,101656.66
2022-12-01T20:32:07.771Z,101653.97
2022-12-01T20:34:38.049Z,101640.25
2022-12-01T20:37:06.046Z,101661.72
2022-12-01T20:39:37.002Z,101678.41
2022-12-01T20:42:06.577Z,101678.88
2022-12-01T20:44:35.275Z,101665.88
2022-12-01T20:47:03.257Z,101645.88
2022-12-01T20:49:31.688Z,101647.06
2022-12-01T20:51:59.592Z,101656.25
2022-12-01T20:54:29.166Z,101659.59
2022-12-01T20:56:57.817Z,101645.19
2022-12-01T20:59:27.882Z,101654.28
2022-12-01T21:01:56.303Z,101628.56
2022-12-01T21:04:24.572Z,101650.63
2022-12-01T21:06:53.566Z,101626.84
2022-12-01T21:09:21.411Z,101656.22
2022-12-01T21:12:09.080Z,101634.78
2022-12-01T21:14:42.527Z,101636.13
2022-12-01T21:17:25.585Z,101643.44
2022-12-01T21:19:57.447Z,101597.53
2022-12-01T21:22:26.816Z,101591.25
2022-12-01T21:25:02.768Z,101625.06
2022-12-01T21:27:31.248Z,101623.75
2022-12-01T21:30:00.598Z,101641.22
2022-12-01T21:32:32.619Z,101615.69
2022-12-01T21:35:04.272Z,101615.50
2022-12-01T21:37:32.917Z,101632.00
2022-12-01T21:40:01.685Z,101580.06
2022-12-01T21:42:32.440Z,101614.75
2022-12-01T21:45:01.886Z,101607.97
2022-12-01T21:47:31.952Z,101602.34
2022-12-01T21:50:04.246Z,101624.13
2022-12-01T21:52:40.263Z,101602.50
2022-12-01T21:55:40.053Z,101632.19
2022-12-01T21:58:23.981Z,101591.44
2022-12-01T22:00:54.295Z,101598.88
2022-12-01T22:03:33.476Z,101601.34
2022-12-01T22:06:28.635Z,101585.13
2022-12-01T22:08:56.603Z,101604.44
2022-12-01T22:11:26.801Z,101590.59
2022-12-01T22:14:00.374Z,101592.53
2022-12-01T22:16:33.062Z,101581.72
2022-12-01T22:19:02.801Z,101601.31
2022-12-01T22:21:36.063Z,101582.53
2022-12-01T22:24:20.391Z,101611.75
2022-12-01T22:26:50.921Z,101548.16
2022-12-01T22:29:27.850Z,101583.34
2022-12-01T22:32:21.502Z,101558.78
2022-12-01T22:34:53.287Z,101604.19
2022-12-01T22:37:24.342Z,101602.56
2022-12-01T22:39:55.342Z,101572.66
2022-12-01T22:42:31.446Z,101578.09
2022-12-01T22:45:02.471Z,101555.97
2022-12-01T22:47:34.349Z,101594.59
2022-12-01T22:50:02.623Z,101579.44
2022-12-01T22:52:31.149Z,101596.56
2022-12-01T22:54:59.627Z,101554.97
2022-12-01T22:57:33.265Z,101573.75
2022-12-01T23:00:15.155Z,101550.00
2022-12-01T23:02:44.953Z,101594.59
2022-12-01T23:05:23.951Z,101573.47
2022-12-01T23:07:52.862Z,101570.47
2022-12-01T23:10:24.242Z,101609.13
2022-12-01T23:12:53.915Z,101584.38
2022-12-01T23:15:27.805Z,101572.59
2022-12-01T23:17:57.741Z,101590.84
2022-12-01T23:20:32.864Z,101579.16
2022-12-01T23:23:03.544Z,101560.19
2022-12-01T23:25:33.202Z,101545.19
2022-12-01T23:28:04.814Z,101587.59
2022-12-01T23:30:33.197Z,101569.91
2022-12-01T23:33:12.998Z,101576.22
2022-12-01T23:35:46.454Z,101575.06
2022-12-01T23:38:18.050Z,101518.75
2022-12-01T23:40:46.856Z,101575.22
2022-12-01T23:43:20.657Z,101538.94
2022-12-01T23:45:50.982Z,101547.53
2022-12-01T23:48:23.822Z,101542.44
2022-12-01T23:50:54.137Z,101535.13
2022-12-01T23:53:30.746Z,101557.78
2022-12-01T23:56:04.255Z,101539.94
2022-12-01T23:58:32.707Z,101531.66
